sensor_id;sensor_type;location;lat;lon;timestamp;P1;durP1;ratioP1;P2;durP2;ratioP2
23634;SDS011;11994;51.038;16.974;2022-12-20T00:01:08;28.20;;;18.45;;
23634;SDS011;11994;51.038;16.974;2022-12-20T00:03:37;27.73;;;19.32;;
23634;SDS011;11994;51.038;16.974;2022-12-20T00:06:04;29.37;;;18.10;;
23634;SDS011;11994;51.038;16.974;2022-12-20T00:08:31;27.87;;;18.57;;
23634;SDS011;11994;51.038;16.974;2022-12-20T00:11:00;27.02;;;18.90;;
23634;SDS011;11994;51.038;16.974;2022-12-20T00:13:29;26.82;;;18.20;;
23634;SDS011;11994;51.038;16.974;2022-12-20T00:16:03;25.20;;;18.00;;
23634;SDS011;11994;51.038;16.974;2022-12-20T00:18:38;27.75;;;18.57;;
23634;SDS011;11994;51.038;16.974;2022-12-20T00:21:05;27.58;;;18.45;;
23634;SDS011;11994;51.038;16.974;2022-12-20T00:23:35;27.93;;;18.57;;
23634;SDS011;11994;51.038;16.974;2022-12-20T00:26:08;27.80;;;18.20;;
23634;SDS011;11994;51.038;16.974;2022-12-20T00:28:33;28.67;;;18.48;;
23634;SDS011;11994;51.038;16.974;2022-12-20T00:31:01;26.87;;;18.48;;
23634;SDS011;11994;51.038;16.974;2022-12-20T00:33:29;27.35;;;17.02;;
23634;SDS011;11994;51.038;16.974;2022-12-20T00:35:55;26.55;;;17.35;;
23634;SDS011;11994;51.038;16.974;2022-12-20T00:38:22;28.70;;;18.85;;
23634;SDS011;11994;51.038;16.974;2022-12-20T00:41:04;27.45;;;18.45;;
23634;SDS011;11994;51.038;16.974;2022-12-20T00:43:30;28.65;;;18.42;;
23634;SDS011;11994;51.038;16.974;2022-12-20T00:45:57;27.07;;;17.67;;
23634;SDS011;11994;51.038;16.974;2022-12-20T00:48:24;27.10;;;17.23;;
23634;SDS011;11994;51.038;16.974;2022-12-20T00:50:51;27.50;;;17.92;;
23634;SDS011;11994;51.038;16.974;2022-12-20T00:53:19;29.48;;;18.95;;
23634;SDS011;11994;51.038;16.974;2022-12-20T00:55:45;28.10;;;19.10;;
23634;SDS011;11994;51.038;16.974;2022-12-20T00:58:12;26.60;;;18.15;;
23634;SDS011;11994;51.038;16.974;2022-12-20T01:00:38;30.45;;;19.42;;
23634;SDS011;11994;51.038;16.974;2022-12-20T01:03:04;29.42;;;19.10;;
23634;SDS011;11994;51.038;16.974;2022-12-20T01:05:32;28.25;;;18.45;;
23634;SDS011;11994;51.038;16.974;2022-12-20T01:07:58;28.95;;;18.52;;
23634;SDS011;11994;51.038;16.974;2022-12-20T01:10:24;27.35;;;19.23;;
23634;SDS011;11994;51.038;16.974;2022-12-20T01:12:51;30.52;;;19.92;;
23634;SDS011;11994;51.038;16.974;2022-12-20T01:15:18;26.90;;;18.55;;
23634;SDS011;11994;51.038;16.974;2022-12-20T01:17:45;29.32;;;19.98;;
23634;SDS011;11994;51.038;16.974;2022-12-20T01:20:12;26.10;;;18.07;;
23634;SDS011;11994;51.038;16.974;2022-12-20T01:22:38;28.73;;;19.17;;
23634;SDS011;11994;51.038;16.974;2022-12-20T01:25:05;27.82;;;18.82;;
23634;SDS011;11994;51.038;16.974;2022-12-20T01:27:32;28.95;;;19.02;;
23634;SDS011;11994;51.038;16.974;2022-12-20T01:29:58;25.02;;;17.67;;
23634;SDS011;11994;51.038;16.974;2022-12-20T01:32:24;28.52;;;18.60;;
23634;SDS011;11994;51.038;16.974;2022-12-20T01:34:50;26.97;;;18.52;;
23634;SDS011;11994;51.038;16.974;2022-12-20T01:37:19;29.85;;;18.70;;
23634;SDS011;11994;51.038;16.974;2022-12-20T01:39:45;25.95;;;18.48;;
23634;SDS011;11994;51.038;16.974;2022-12-20T01:42:15;26.97;;;17.87;;
23634;SDS011;11994;51.038;16.974;2022-12-20T01:47:11;29.72;;;19.45;;
23634;SDS011;11994;51.038;16.974;2022-12-20T01:49:39;29.00;;;18.73;;
23634;SDS011;11994;51.038;16.974;2022-12-20T01:52:12;27.25;;;17.60;;
23634;SDS011;11994;51.038;16.974;2022-12-20T01:54:47;28.05;;;18.55;;
23634;SDS011;11994;51.038;16.974;2022-12-20T01:57:17;26.42;;;17.98;;
23634;SDS011;11994;51.038;16.974;2022-12-20T01:59:48;29.02;;;18.02;;
23634;SDS011;11994;51.038;16.974;2022-12-20T02:02:16;25.43;;;17.70;;
23634;SDS011;11994;51.038;16.974;2022-12-20T02:04:43;26.10;;;18.17;;
23634;SDS011;11994;51.038;16.974;2022-12-20T02:07:10;26.23;;;17.98;;
23634;SDS011;11994;51.038;16.974;2022-12-20T02:09:41;27.65;;;18.30;;
23634;SDS011;11994;51.038;16.974;2022-12-20T02:12:09;27.37;;;18.30;;
23634;SDS011;11994;51.038;16.974;2022-12-20T02:17:43;24.95;;;17.77;;
23634;SDS011;11994;51.038;16.974;2022-12-20T02:27:19;26.07;;;17.00;;
23634;SDS011;11994;51.038;16.974;2022-12-20T02:34:56;26.97;;;18.40;;
23634;SDS011;11994;51.038;16.974;2022-12-20T02:37:23;26.02;;;18.55;;
23634;SDS011;11994;51.038;16.974;2022-12-20T02:39:49;28.60;;;18.40;;
23634;SDS011;11994;51.038;16.974;2022-12-20T02:42:17;26.85;;;18.05;;
23634;SDS011;11994;51.038;16.974;2022-12-20T02:44:50;27.10;;;18.35;;
23634;SDS011;11994;51.038;16.974;2022-12-20T02:47:48;27.25;;;17.87;;
23634;SDS011;11994;51.038;16.974;2022-12-20T02:50:24;26.15;;;16.87;;
23634;SDS011;11994;51.038;16.974;2022-12-20T02:52:50;27.10;;;17.82;;
23634;SDS011;11994;51.038;16.974;2022-12-20T02:55:18;26.52;;;17.73;;
23634;SDS011;11994;51.038;16.974;2022-12-20T02:57:57;28.70;;;17.85;;
23634;SDS011;11994;51.038;16.974;2022-12-20T03:00:32;26.60;;;16.93;;
23634;SDS011;11994;51.038;16.974;2022-12-20T03:03:02;25.97;;;17.23;;
23634;SDS011;11994;51.038;16.974;2022-12-20T03:05:49;27.75;;;17.52;;
23634;SDS011;11994;51.038;16.974;2022-12-20T03:08:19;26.42;;;17.65;;
23634;SDS011;11994;51.038;16.974;2022-12-20T03:10:47;24.57;;;16.85;;
23634;SDS011;11994;51.038;16.974;2022-12-20T03:13:14;26.40;;;17.90;;
23634;SDS011;11994;51.038;16.974;2022-12-20T03:15:41;27.90;;;17.82;;
23634;SDS011;11994;51.038;16.974;2022-12-20T03:18:07;27.35;;;17.87;;
23634;SDS011;11994;51.038;16.974;2022-12-20T03:20:33;24.85;;;17.77;;
23634;SDS011;11994;51.038;16.974;2022-12-20T03:23:00;24.37;;;17.75;;
23634;SDS011;11994;51.038;16.974;2022-12-20T03:25:26;25.60;;;17.07;;
23634;SDS011;11994;51.038;16.974;2022-12-20T03:27:52;25.68;;;17.92;;
23634;SDS011;11994;51.038;16.974;2022-12-20T03:30:19;26.00;;;17.48;;
23634;SDS011;11994;51.038;16.974;2022-12-20T03:32:45;27.13;;;17.90;;
23634;SDS011;11994;51.038;16.974;2022-12-20T03:35:11;26.40;;;17.73;;
23634;SDS011;11994;51.038;16.974;2022-12-20T03:37:37;27.85;;;17.00;;
23634;SDS011;11994;51.038;16.974;2022-12-20T03:40:04;25.00;;;16.82;;
23634;SDS011;11994;51.038;16.974;2022-12-20T03:42:31;27.58;;;18.52;;
23634;SDS011;11994;51.038;16.974;2022-12-20T03:44:57;27.80;;;17.67;;
23634;SDS011;11994;51.038;16.974;2022-12-20T03:47:23;25.70;;;18.55;;
23634;SDS011;11994;51.038;16.974;2022-12-20T03:49:50;25.82;;;17.82;;
23634;SDS011;11994;51.038;16.974;2022-12-20T03:52:16;26.12;;;17.80;;
23634;SDS011;11994;51.038;16.974;2022-12-20T03:54:42;30.25;;;17.77;;
23634;SDS011;11994;51.038;16.974;2022-12-20T03:57:08;28.32;;;18.52;;
23634;SDS011;11994;51.038;16.974;2022-12-20T03:59:34;28.73;;;18.82;;
23634;SDS011;11994;51.038;16.974;2022-12-20T04:02:01;31.65;;;19.20;;
23634;SDS011;11994;51.038;16.974;2022-12-20T04:04:28;29.40;;;18.55;;
23634;SDS011;11994;51.038;16.974;2022-12-20T04:06:55;31.30;;;19.02;;
23634;SDS011;11994;51.038;16.974;2022-12-20T04:09:21;30.50;;;18.92;;
23634;SDS011;11994;51.038;16.974;2022-12-20T04:11:47;28.45;;;18.25;;
23634;SDS011;11994;51.038;16.974;2022-12-20T04:14:13;25.62;;;17.80;;
23634;SDS011;11994;51.038;16.974;2022-12-20T04:16:39;26.37;;;17.95;;
23634;SDS011;11994;51.038;16.974;2022-12-20T04:19:05;26.93;;;17.23;;
23634;SDS011;11994;51.038;16.974;2022-12-20T04:21:32;28.57;;;18.80;;
23634;SDS011;11994;51.038;16.974;2022-12-20T04:24:00;26.07;;;18.35;;
23634;SDS011;11994;51.038;16.974;2022-12-20T04:26:28;32.55;;;20.60;;
23634;SDS011;11994;51.038;16.974;2022-12-20T04:28:55;30.68;;;19.17;;
23634;SDS011;11994;51.038;16.974;2022-12-20T04:31:21;31.27;;;19.32;;
23634;SDS011;11994;51.038;16.974;2022-12-20T04:33:47;31.65;;;19.50;;
23634;SDS011;11994;51.038;16.974;2022-12-20T04:36:13;29.35;;;20.27;;
23634;SDS011;11994;51.038;16.974;2022-12-20T04:38:40;30.65;;;20.48;;
23634;SDS011;11994;51.038;16.974;2022-12-20T04:41:06;30.02;;;20.05;;
23634;SDS011;11994;51.038;16.974;2022-12-20T04:43:32;31.87;;;20.70;;
23634;SDS011;11994;51.038;16.974;2022-12-20T04:45:58;33.95;;;21.65;;
23634;SDS011;11994;51.038;16.974;2022-12-20T04:48:25;35.30;;;20.95;;
23634;SDS011;11994;51.038;16.974;2022-12-20T04:50:53;31.60;;;20.80;;
23634;SDS011;11994;51.038;16.974;2022-12-20T04:53:21;32.63;;;18.87;;
23634;SDS011;11994;51.038;16.974;2022-12-20T04:56:06;31.30;;;20.10;;
23634;SDS011;11994;51.038;16.974;2022-12-20T04:58:33;31.12;;;20.45;;
23634;SDS011;11994;51.038;16.974;2022-12-20T05:00:59;33.50;;;22.50;;
23634;SDS011;11994;51.038;16.974;2022-12-20T05:03:26;35.90;;;23.25;;
23634;SDS011;11994;51.038;16.974;2022-12-20T05:05:52;33.80;;;21.62;;
23634;SDS011;11994;51.038;16.974;2022-12-20T05:08:18;33.45;;;21.20;;
23634;SDS011;11994;51.038;16.974;2022-12-20T05:10:45;33.40;;;21.90;;
23634;SDS011;11994;51.038;16.974;2022-12-20T05:13:12;34.23;;;21.10;;
23634;SDS011;11994;51.038;16.974;2022-12-20T05:15:39;37.20;;;22.27;;
23634;SDS011;11994;51.038;16.974;2022-12-20T05:18:06;32.23;;;21.82;;
23634;SDS011;11994;51.038;16.974;2022-12-20T05:20:32;32.25;;;21.10;;
23634;SDS011;11994;51.038;16.974;2022-12-20T05:22:59;32.28;;;22.02;;
23634;SDS011;11994;51.038;16.974;2022-12-20T05:25:45;34.55;;;21.87;;
23634;SDS011;11994;51.038;16.974;2022-12-20T05:28:28;31.45;;;21.42;;
23634;SDS011;11994;51.038;16.974;2022-12-20T05:30:55;53.65;;;31.23;;
23634;SDS011;11994;51.038;16.974;2022-12-20T05:33:21;42.83;;;26.97;;
23634;SDS011;11994;51.038;16.974;2022-12-20T05:35:47;41.55;;;28.57;;
23634;SDS011;11994;51.038;16.974;2022-12-20T05:38:13;39.83;;;26.25;;
23634;SDS011;11994;51.038;16.974;2022-12-20T05:40:40;46.65;;;30.12;;
23634;SDS011;11994;51.038;16.974;2022-12-20T05:43:06;42.33;;;24.90;;
23634;SDS011;11994;51.038;16.974;2022-12-20T05:45:33;35.92;;;23.05;;
23634;SDS011;11994;51.038;16.974;2022-12-20T05:47:59;40.20;;;22.73;;
23634;SDS011;11994;51.038;16.974;2022-12-20T05:50:26;34.73;;;22.65;;
23634;SDS011;11994;51.038;16.974;2022-12-20T05:52:52;38.25;;;22.93;;
23634;SDS011;11994;51.038;16.974;2022-12-20T05:55:18;36.70;;;23.42;;
23634;SDS011;11994;51.038;16.974;2022-12-20T05:57:46;40.50;;;25.97;;
23634;SDS011;11994;51.038;16.974;2022-12-20T06:00:12;41.90;;;24.15;;
23634;SDS011;11994;51.038;16.974;2022-12-20T06:02:39;39.88;;;25.35;;
23634;SDS011;11994;51.038;16.974;2022-12-20T06:05:05;40.12;;;24.77;;
23634;SDS011;11994;51.038;16.974;2022-12-20T06:07:32;37.65;;;23.00;;
23634;SDS011;11994;51.038;16.974;2022-12-20T06:09:58;36.40;;;22.93;;
23634;SDS011;11994;51.038;16.974;2022-12-20T06:12:24;35.60;;;21.82;;
23634;SDS011;11994;51.038;16.974;2022-12-20T06:14:50;40.67;;;22.17;;
23634;SDS011;11994;51.038;16.974;2022-12-20T06:17:17;39.58;;;21.85;;
23634;SDS011;11994;51.038;16.974;2022-12-20T06:19:44;38.00;;;22.90;;
23634;SDS011;11994;51.038;16.974;2022-12-20T06:22:10;34.70;;;22.37;;
23634;SDS011;11994;51.038;16.974;2022-12-20T06:24:37;39.78;;;23.87;;
23634;SDS011;11994;51.038;16.974;2022-12-20T06:27:04;40.52;;;23.80;;
23634;SDS011;11994;51.038;16.974;2022-12-20T06:29:31;34.95;;;22.85;;
23634;SDS011;11994;51.038;16.974;2022-12-20T06:31:58;39.30;;;24.23;;
23634;SDS011;11994;51.038;16.974;2022-12-20T06:34:25;40.03;;;26.52;;
23634;SDS011;11994;51.038;16.974;2022-12-20T06:36:52;45.50;;;27.05;;
23634;SDS011;11994;51.038;16.974;2022-12-20T06:39:18;46.73;;;29.70;;
23634;SDS011;11994;51.038;16.974;2022-12-20T06:41:44;50.83;;;29.42;;
23634;SDS011;11994;51.038;16.974;2022-12-20T06:44:10;41.37;;;27.00;;
23634;SDS011;11994;51.038;16.974;2022-12-20T06:46:36;42.23;;;26.80;;
23634;SDS011;11994;51.038;16.974;2022-12-20T06:49:02;39.53;;;25.47;;
23634;SDS011;11994;51.038;16.974;2022-12-20T06:51:28;40.10;;;24.87;;
23634;SDS011;11994;51.038;16.974;2022-12-20T06:53:54;39.47;;;25.37;;
23634;SDS011;11994;51.038;16.974;2022-12-20T06:56:20;35.40;;;22.07;;
23634;SDS011;11994;51.038;16.974;2022-12-20T06:58:46;36.73;;;23.55;;
23634;SDS011;11994;51.038;16.974;2022-12-20T07:01:12;38.63;;;23.55;;
23634;SDS011;11994;51.038;16.974;2022-12-20T07:03:39;40.25;;;23.70;;
23634;SDS011;11994;51.038;16.974;2022-12-20T07:06:05;41.98;;;24.63;;
23634;SDS011;11994;51.038;16.974;2022-12-20T07:08:31;37.13;;;22.48;;
23634;SDS011;11994;51.038;16.974;2022-12-20T07:11:02;35.00;;;22.45;;
23634;SDS011;11994;51.038;16.974;2022-12-20T07:13:30;36.68;;;23.30;;
23634;SDS011;11994;51.038;16.974;2022-12-20T07:15:57;41.15;;;22.95;;
23634;SDS011;11994;51.038;16.974;2022-12-20T07:18:27;35.63;;;23.27;;
23634;SDS011;11994;51.038;16.974;2022-12-20T07:20:53;40.03;;;22.30;;
23634;SDS011;11994;51.038;16.974;2022-12-20T07:23:25;36.17;;;23.67;;
23634;SDS011;11994;51.038;16.974;2022-12-20T07:25:52;38.98;;;23.10;;
23634;SDS011;11994;51.038;16.974;2022-12-20T07:28:23;39.73;;;24.72;;
23634;SDS011;11994;51.038;16.974;2022-12-20T07:30:50;40.15;;;22.93;;
23634;SDS011;11994;51.038;16.974;2022-12-20T07:33:16;37.73;;;22.37;;
23634;SDS011;11994;51.038;16.974;2022-12-20T07:35:42;34.27;;;21.57;;
23634;SDS011;11994;51.038;16.974;2022-12-20T07:38:13;36.30;;;22.40;;
23634;SDS011;11994;51.038;16.974;2022-12-20T07:40:40;35.78;;;22.50;;
23634;SDS011;11994;51.038;16.974;2022-12-20T07:43:08;37.50;;;23.47;;
23634;SDS011;11994;51.038;16.974;2022-12-20T07:45:34;37.83;;;23.05;;
23634;SDS011;11994;51.038;16.974;2022-12-20T07:48:02;39.45;;;22.93;;
23634;SDS011;11994;51.038;16.974;2022-12-20T07:50:32;43.78;;;24.57;;
23634;SDS011;11994;51.038;16.974;2022-12-20T07:52:59;38.98;;;22.75;;
23634;SDS011;11994;51.038;16.974;2022-12-20T07:55:26;39.75;;;23.57;;
23634;SDS011;11994;51.038;16.974;2022-12-20T07:57:56;37.48;;;22.00;;
23634;SDS011;11994;51.038;16.974;2022-12-20T08:00:26;38.48;;;23.02;;
23634;SDS011;11994;51.038;16.974;2022-12-20T08:03:05;38.85;;;24.27;;
23634;SDS011;11994;51.038;16.974;2022-12-20T08:05:42;38.35;;;23.67;;
23634;SDS011;11994;51.038;16.974;2022-12-20T08:08:12;39.98;;;23.85;;
23634;SDS011;11994;51.038;16.974;2022-12-20T08:10:39;38.00;;;22.98;;
23634;SDS011;11994;51.038;16.974;2022-12-20T08:13:05;43.13;;;24.30;;
23634;SDS011;11994;51.038;16.974;2022-12-20T08:15:32;41.25;;;24.50;;
23634;SDS011;11994;51.038;16.974;2022-12-20T08:18:01;43.75;;;25.43;;
23634;SDS011;11994;51.038;16.974;2022-12-20T08:20:27;44.33;;;25.72;;
23634;SDS011;11994;51.038;16.974;2022-12-20T08:22:53;40.55;;;26.02;;
23634;SDS011;11994;51.038;16.974;2022-12-20T08:25:19;45.40;;;25.30;;
23634;SDS011;11994;51.038;16.974;2022-12-20T08:27:46;46.30;;;24.85;;
23634;SDS011;11994;51.038;16.974;2022-12-20T08:32:38;42.20;;;24.72;;
23634;SDS011;11994;51.038;16.974;2022-12-20T08:35:05;45.45;;;25.50;;
23634;SDS011;11994;51.038;16.974;2022-12-20T08:37:32;42.43;;;24.90;;
23634;SDS011;11994;51.038;16.974;2022-12-20T08:39:59;46.08;;;25.80;;
23634;SDS011;11994;51.038;16.974;2022-12-20T08:42:25;39.53;;;24.82;;
23634;SDS011;11994;51.038;16.974;2022-12-20T08:44:52;44.35;;;26.17;;
23634;SDS011;11994;51.038;16.974;2022-12-20T08:47:18;42.58;;;25.37;;
23634;SDS011;11994;51.038;16.974;2022-12-20T08:49:44;47.50;;;27.07;;
23634;SDS011;11994;51.038;16.974;2022-12-20T08:52:10;44.40;;;27.62;;
23634;SDS011;11994;51.038;16.974;2022-12-20T08:54:36;50.83;;;29.23;;
23634;SDS011;11994;51.038;16.974;2022-12-20T08:57:03;46.68;;;27.60;;
23634;SDS011;11994;51.038;16.974;2022-12-20T08:59:29;46.30;;;28.00;;
23634;SDS011;11994;51.038;16.974;2022-12-20T09:01:55;47.20;;;28.38;;
23634;SDS011;11994;51.038;16.974;2022-12-20T09:04:21;47.03;;;28.27;;
23634;SDS011;11994;51.038;16.974;2022-12-20T09:06:47;47.58;;;28.25;;
23634;SDS011;11994;51.038;16.974;2022-12-20T09:09:13;41.75;;;25.50;;
23634;SDS011;11994;51.038;16.974;2022-12-20T09:11:40;38.38;;;24.18;;
23634;SDS011;11994;51.038;16.974;2022-12-20T09:14:07;40.83;;;24.50;;
23634;SDS011;11994;51.038;16.974;2022-12-20T09:16:34;38.30;;;24.47;;
23634;SDS011;11994;51.038;16.974;2022-12-20T09:19:00;43.75;;;25.60;;
23634;SDS011;11994;51.038;16.974;2022-12-20T09:21:28;46.25;;;27.40;;
23634;SDS011;11994;51.038;16.974;2022-12-20T09:23:55;43.40;;;25.80;;
23634;SDS011;11994;51.038;16.974;2022-12-20T09:26:22;46.23;;;28.23;;
23634;SDS011;11994;51.038;16.974;2022-12-20T09:28:48;43.80;;;27.07;;
23634;SDS011;11994;51.038;16.974;2022-12-20T09:31:16;41.40;;;25.57;;
23634;SDS011;11994;51.038;16.974;2022-12-20T09:33:45;40.10;;;24.57;;
23634;SDS011;11994;51.038;16.974;2022-12-20T09:36:12;43.28;;;25.75;;
23634;SDS011;11994;51.038;16.974;2022-12-20T09:38:44;43.33;;;26.02;;
23634;SDS011;11994;51.038;16.974;2022-12-20T09:43:54;40.48;;;25.45;;
23634;SDS011;11994;51.038;16.974;2022-12-20T09:46:23;44.70;;;25.08;;
23634;SDS011;11994;51.038;16.974;2022-12-20T09:48:50;40.23;;;24.50;;
23634;SDS011;11994;51.038;16.974;2022-12-20T09:51:33;37.63;;;24.37;;
23634;SDS011;11994;51.038;16.974;2022-12-20T09:59:49;53.25;;;28.47;;
23634;SDS011;11994;51.038;16.974;2022-12-20T10:02:15;47.10;;;27.10;;
23634;SDS011;11994;51.038;16.974;2022-12-20T10:04:48;47.33;;;27.07;;
23634;SDS011;11994;51.038;16.974;2022-12-20T10:12:47;45.98;;;27.50;;
23634;SDS011;11994;51.038;16.974;2022-12-20T10:15:57;45.38;;;28.50;;
23634;SDS011;11994;51.038;16.974;2022-12-20T10:24:33;47.65;;;27.87;;
23634;SDS011;11994;51.038;16.974;2022-12-20T10:27:11;48.00;;;29.12;;
23634;SDS011;11994;51.038;16.974;2022-12-20T10:29:43;50.52;;;28.25;;
23634;SDS011;11994;51.038;16.974;2022-12-20T10:32:12;49.45;;;28.05;;
23634;SDS011;11994;51.038;16.974;2022-12-20T10:37:19;46.50;;;28.07;;
23634;SDS011;11994;51.038;16.974;2022-12-20T10:39:48;48.50;;;29.55;;
23634;SDS011;11994;51.038;16.974;2022-12-20T10:45:28;47.83;;;29.50;;
23634;SDS011;11994;51.038;16.974;2022-12-20T10:47:45;46.97;;;29.03;;
23634;SDS011;11994;51.038;16.974;2022-12-20T10:50:18;44.70;;;29.45;;
23634;SDS011;11994;51.038;16.974;2022-12-20T10:52:44;45.95;;;29.02;;
23634;SDS011;11994;51.038;16.974;2022-12-20T11:01:03;51.55;;;29.40;;
23634;SDS011;11994;51.038;16.974;2022-12-20T11:03:49;57.98;;;33.10;;
23634;SDS011;11994;51.038;16.974;2022-12-20T11:06:19;59.33;;;34.38;;
23634;SDS011;11994;51.038;16.974;2022-12-20T11:08:49;56.80;;;34.35;;
23634;SDS011;11994;51.038;16.974;2022-12-20T11:11:16;51.25;;;30.88;;
23634;SDS011;11994;51.038;16.974;2022-12-20T11:13:46;52.78;;;30.97;;
23634;SDS011;11994;51.038;16.974;2022-12-20T11:16:48;43.68;;;28.42;;
23634;SDS011;11994;51.038;16.974;2022-12-20T11:19:26;42.83;;;27.58;;
23634;SDS011;11994;51.038;16.974;2022-12-20T11:22:01;40.40;;;26.05;;
23634;SDS011;11994;51.038;16.974;2022-12-20T11:24:51;42.58;;;26.70;;
23634;SDS011;11994;51.038;16.974;2022-12-20T11:27:29;49.90;;;29.37;;
23634;SDS011;11994;51.038;16.974;2022-12-20T11:36:01;53.60;;;31.12;;
23634;SDS011;11994;51.038;16.974;2022-12-20T11:44:21;42.23;;;26.45;;
23634;SDS011;11994;51.038;16.974;2022-12-20T11:53:11;42.38;;;27.40;;
23634;SDS011;11994;51.038;16.974;2022-12-20T11:55:50;50.17;;;30.15;;
23634;SDS011;11994;51.038;16.974;2022-12-20T11:58:22;47.78;;;30.17;;
23634;SDS011;11994;51.038;16.974;2022-12-20T12:00:59;50.90;;;30.82;;
23634;SDS011;11994;51.038;16.974;2022-12-20T12:03:37;51.02;;;30.12;;
23634;SDS011;11994;51.038;16.974;2022-12-20T12:06:11;54.65;;;29.57;;
23634;SDS011;11994;51.038;16.974;2022-12-20T12:08:52;63.98;;;30.23;;
23634;SDS011;11994;51.038;16.974;2022-12-20T12:11:31;48.33;;;26.87;;
23634;SDS011;11994;51.038;16.974;2022-12-20T12:14:02;46.35;;;28.87;;
23634;SDS011;11994;51.038;16.974;2022-12-20T12:16:34;51.42;;;30.40;;
23634;SDS011;11994;51.038;16.974;2022-12-20T12:19:04;46.77;;;28.98;;
23634;SDS011;11994;51.038;16.974;2022-12-20T12:21:40;47.90;;;30.40;;
23634;SDS011;11994;51.038;16.974;2022-12-20T12:27:03;50.03;;;29.42;;
23634;SDS011;11994;51.038;16.974;2022-12-20T12:29:31;51.70;;;30.70;;
23634;SDS011;11994;51.038;16.974;2022-12-20T12:46:26;44.33;;;27.30;;
23634;SDS011;11994;51.038;16.974;2022-12-20T12:51:38;46.08;;;29.32;;
23634;SDS011;11994;51.038;16.974;2022-12-20T12:56:58;53.20;;;32.10;;
23634;SDS011;11994;51.038;16.974;2022-12-20T13:04:55;44.13;;;26.50;;
23634;SDS011;11994;51.038;16.974;2022-12-20T13:07:45;45.85;;;28.27;;
23634;SDS011;11994;51.038;16.974;2022-12-20T13:17:58;42.25;;;25.48;;
23634;SDS011;11994;51.038;16.974;2022-12-20T13:20:30;43.13;;;27.13;;
23634;SDS011;11994;51.038;16.974;2022-12-20T13:33:42;40.25;;;25.17;;
23634;SDS011;11994;51.038;16.974;2022-12-20T13:39:03;36.53;;;23.02;;
23634;SDS011;11994;51.038;16.974;2022-12-20T13:41:45;40.23;;;25.62;;
23634;SDS011;11994;51.038;16.974;2022-12-20T13:47:05;44.80;;;27.50;;
23634;SDS011;11994;51.038;16.974;2022-12-20T13:49:58;51.37;;;33.02;;
23634;SDS011;11994;51.038;16.974;2022-12-20T13:52:28;59.50;;;38.00;;
23634;SDS011;11994;51.038;16.974;2022-12-20T13:54:59;64.32;;;39.35;;
23634;SDS011;11994;51.038;16.974;2022-12-20T13:57:30;60.55;;;37.90;;
23634;SDS011;11994;51.038;16.974;2022-12-20T14:00:06;61.77;;;38.08;;
23634;SDS011;11994;51.038;16.974;2022-12-20T14:02:43;55.10;;;33.98;;
23634;SDS011;11994;51.038;16.974;2022-12-20T14:05:17;51.23;;;29.57;;
23634;SDS011;11994;51.038;16.974;2022-12-20T14:07:58;42.45;;;26.10;;
23634;SDS011;11994;51.038;16.974;2022-12-20T14:10:33;40.12;;;26.05;;
23634;SDS011;11994;51.038;16.974;2022-12-20T14:13:00;42.53;;;26.33;;
23634;SDS011;11994;51.038;16.974;2022-12-20T14:15:30;44.00;;;26.90;;
23634;SDS011;11994;51.038;16.974;2022-12-20T14:18:15;42.25;;;25.48;;
23634;SDS011;11994;51.038;16.974;2022-12-20T14:20:46;39.78;;;24.30;;
23634;SDS011;11994;51.038;16.974;2022-12-20T14:23:22;41.42;;;25.88;;
23634;SDS011;11994;51.038;16.974;2022-12-20T14:25:58;40.20;;;24.77;;
23634;SDS011;11994;51.038;16.974;2022-12-20T14:28:36;39.78;;;24.57;;
23634;SDS011;11994;51.038;16.974;2022-12-20T14:31:24;39.65;;;25.50;;
23634;SDS011;11994;51.038;16.974;2022-12-20T14:36:35;43.70;;;26.82;;
23634;SDS011;11994;51.038;16.974;2022-12-20T14:39:27;45.55;;;27.45;;
23634;SDS011;11994;51.038;16.974;2022-12-20T14:44:36;35.05;;;22.75;;
23634;SDS011;11994;51.038;16.974;2022-12-20T14:47:11;38.65;;;23.00;;
23634;SDS011;11994;51.038;16.974;2022-12-20T14:49:47;39.25;;;23.55;;
23634;SDS011;11994;51.038;16.974;2022-12-20T15:00:11;38.95;;;25.23;;
23634;SDS011;11994;51.038;16.974;2022-12-20T15:03:02;40.17;;;24.02;;
23634;SDS011;11994;51.038;16.974;2022-12-20T15:05:45;38.28;;;24.60;;
23634;SDS011;11994;51.038;16.974;2022-12-20T15:08:18;36.20;;;22.87;;
23634;SDS011;11994;51.038;16.974;2022-12-20T15:13:40;43.40;;;27.52;;
23634;SDS011;11994;51.038;16.974;2022-12-20T15:16:14;41.10;;;26.23;;
23634;SDS011;11994;51.038;16.974;2022-12-20T15:18:47;39.55;;;25.02;;
23634;SDS011;11994;51.038;16.974;2022-12-20T15:23:58;38.53;;;24.72;;
23634;SDS011;11994;51.038;16.974;2022-12-20T15:26:27;38.65;;;24.92;;
23634;SDS011;11994;51.038;16.974;2022-12-20T15:28:55;39.65;;;24.80;;
23634;SDS011;11994;51.038;16.974;2022-12-20T15:31:22;37.63;;;24.52;;
23634;SDS011;11994;51.038;16.974;2022-12-20T15:33:49;41.70;;;25.72;;
23634;SDS011;11994;51.038;16.974;2022-12-20T15:36:21;42.48;;;25.80;;
23634;SDS011;11994;51.038;16.974;2022-12-20T15:38:52;37.30;;;23.87;;
23634;SDS011;11994;51.038;16.974;2022-12-20T15:41:21;39.18;;;24.52;;
23634;SDS011;11994;51.038;16.974;2022-12-20T15:43:50;39.03;;;24.30;;
23634;SDS011;11994;51.038;16.974;2022-12-20T15:46:22;42.75;;;25.80;;
23634;SDS011;11994;51.038;16.974;2022-12-20T15:48:48;44.30;;;26.75;;
23634;SDS011;11994;51.038;16.974;2022-12-20T15:51:20;40.87;;;26.83;;
23634;SDS011;11994;51.038;16.974;2022-12-20T15:53:58;40.92;;;25.23;;
23634;SDS011;11994;51.038;16.974;2022-12-20T15:56:26;39.92;;;25.62;;
23634;SDS011;11994;51.038;16.974;2022-12-20T15:58:53;39.30;;;25.85;;
23634;SDS011;11994;51.038;16.974;2022-12-20T16:01:20;48.73;;;30.27;;
23634;SDS011;11994;51.038;16.974;2022-12-20T16:03:49;47.58;;;28.85;;
23634;SDS011;11994;51.038;16.974;2022-12-20T16:06:15;49.13;;;30.10;;
23634;SDS011;11994;51.038;16.974;2022-12-20T16:08:41;44.30;;;27.20;;
23634;SDS011;11994;51.038;16.974;2022-12-20T16:11:16;41.87;;;25.63;;
23634;SDS011;11994;51.038;16.974;2022-12-20T16:13:47;40.70;;;25.72;;
23634;SDS011;11994;51.038;16.974;2022-12-20T16:16:17;44.25;;;27.67;;
23634;SDS011;11994;51.038;16.974;2022-12-20T16:18:45;44.70;;;28.50;;
23634;SDS011;11994;51.038;16.974;2022-12-20T16:21:19;46.70;;;28.00;;
23634;SDS011;11994;51.038;16.974;2022-12-20T16:23:48;42.73;;;25.68;;
23634;SDS011;11994;51.038;16.974;2022-12-20T16:26:16;41.53;;;25.97;;
23634;SDS011;11994;51.038;16.974;2022-12-20T16:28:45;62.08;;;33.98;;
23634;SDS011;11994;51.038;16.974;2022-12-20T16:33:55;54.00;;;31.82;;
23634;SDS011;11994;51.038;16.974;2022-12-20T16:36:23;47.23;;;28.12;;
23634;SDS011;11994;51.038;16.974;2022-12-20T16:38:50;49.30;;;29.67;;
23634;SDS011;11994;51.038;16.974;2022-12-20T16:41:23;42.33;;;27.27;;
23634;SDS011;11994;51.038;16.974;2022-12-20T16:43:54;42.27;;;27.37;;
23634;SDS011;11994;51.038;16.974;2022-12-20T16:46:22;42.10;;;25.95;;